LGRPLGSM

Guest
Details From LGRP - DIAGORAS
To LGSM - SAMOS
Flight Number -
Tags generated
Created
Modified
Stats Distance 95 nm / 177 km
Max Altitude 2,400 ft / 732 m
Waypoints 3
Social Downloads 0
Likes 0
Share VATSIM

Download

Looking for another format? Having issues loading an existing format? Contact us
Advertisement - Login to hide

Notes

Basic altitude profile: - Ascent Rate: 2500ft/min - Ascent Speed: 250kts - Cruise Altitude: 21000ft - Cruise Speed: 420kts - Descent Rate: 1500ft/min - Descent Speed: 250kts Options: - Use NATs: yes - Use PACOTS: yes - Use low airways: yes - Use high airways: yes

Route

LGRP BANRO LGSM

ID Type Via Altitude Latitude Longitude Leg Dist Tot Dist Heading (true) Name
O LGRP APT - 0 ft / 0 m 36.40542˚ 28.08619˚ - 0 nm - DIAGORAS
BANRO FIX - 2,400 ft / 732 m 36.49472˚ 27.99528˚ 6 nm 6 nm 321° / 321° -
O LGSM APT - 0 ft / 0 m 37.68901˚ 26.91112˚ 88 nm 95 nm 324° / 324° SAMOS

Altitude Profile

Advertisement - Login to hide

LGRP

Details ICAO LGRP (RHO)
Name DIAGORAS
Region Greece
Timezone Europe/Athens (UTC+3.0)
Stats Elevation 17 ft / 5 m (AMSL)
Location 36.405420° 28.086193°
Runways 1
Magnetic Variation 4.822° E

METAR

LGRP 250150Z 27011KT 9999 FEW010 21/19 Q1005 NOSIG

Decode

TAF

TAF LGRP 242300Z 2500/2524 26015KT 9999 FEW008 SCT018 PROB30 TEMPO 2509/2515 4000 TSRA SCT015 FEW018CB BKN050

Decode

Departure Runways

ID Width Length Bearing (true) Bearing (mag) Surface Threshold Offset Overrun Length
07 148 ft / 45 m 10,830 ft / 3,301 m 69.97° 65.15° Asphalt 0 ft / 0 m 0 ft / 0 m
25 148 ft / 45 m 10,830 ft / 3,301 m 249.99° 245.17° Asphalt 0 ft / 0 m 0 ft / 0 m

LGSM

Details ICAO LGSM (SMI)
Name SAMOS
Region Greece
Timezone Europe/Athens (UTC+3.0)
Stats Elevation 19 ft / 6 m (AMSL)
Location 37.689012° 26.911123°
Runways 1
Magnetic Variation 4.844° E

METAR

LGSM 250150Z 33003KT 9999 FEW025 18/15 Q1006

Decode

TAF

Not found

Destination Runways

ID Width Length Bearing (true) Bearing (mag) Surface Threshold Offset Overrun Length
09 148 ft / 45 m 6,690 ft / 2,039 m 94.02° 89.18° Asphalt 230 ft / 70 m 0 ft / 0 m
27 148 ft / 45 m 6,690 ft / 2,039 m 274.03° 269.19° Asphalt 0 ft / 0 m 0 ft / 0 m

Popular Alternatives